Time;durP1;ratioP1;P1;durP2;ratioP2;P2;SDS_P1;SDS_P2;PMS_P1;PMS_P2;Temp;Humidity;BMP_temperature;BMP_pressure;BME280_temperature;BME280_humidity;BME280_pressure;Samples;Min_cycle;Max_cycle;Signal;HPM_P1;HPM_P2
2022/06/26 00:04:01;;;;;;;3.13;2.50;;;;;;;22.58;59.12;99756.75;10294683;28;20053;-67
2022/06/26 00:09:02;;;;;;;2.72;2.28;;;;;;;22.64;58.83;99777.56;10297125;28;21190;-66
2022/06/26 00:14:04;;;;;;;3.97;3.58;;;;;;;22.32;60.41;99834.38;10289420;28;20110;-65
2022/06/26 00:19:05;;;;;;;3.40;3.10;;;;;;;22.24;60.32;99797.44;10286156;28;20089;-66
2022/06/26 00:24:06;;;;;;;3.33;3.03;;;;;;;22.25;60.79;99801.84;10285829;28;20037;-65
2022/06/26 00:29:08;;;;;;;3.83;2.83;;;;;;;22.20;60.76;99817.91;10288253;28;20152;-66
2022/06/26 00:34:09;;;;;;;2.88;2.30;;;;;;;22.14;60.54;99812.47;10270251;28;20116;-66
2022/06/26 00:39:11;;;;;;;2.75;2.05;;;;;;;22.09;59.31;99809.59;10281260;28;20633;-66
2022/06/26 00:44:18;;;;;;;1.90;1.67;;;;;;;22.00;59.95;99798.13;10267021;28;20116;-64
2022/06/26 00:49:20;;;;;;;3.40;1.60;;;;;;;22.01;58.60;99802.50;10273168;28;20050;-62
2022/06/26 00:54:24;;;;;;;3.42;1.33;;;;;;;22.05;58.45;99801.03;10293959;28;20243;-61
2022/06/26 00:59:27;;;;;;;2.05;1.40;;;;;;;22.13;58.59;99792.69;10293486;28;20057;-62
2022/06/26 01:04:28;;;;;;;1.70;1.60;;;;;;;22.18;59.09;99792.88;10289599;28;20439;-62
2022/06/26 01:09:30;;;;;;;2.95;2.03;;;;;;;22.22;58.80;99796.84;10286169;28;20054;-62
2022/06/26 01:14:31;;;;;;;3.85;1.70;;;;;;;22.28;58.78;99797.88;10286435;28;20085;-61
2022/06/26 01:19:33;;;;;;;1.55;1.33;;;;;;;22.33;58.58;99803.53;10287821;28;20602;-61
2022/06/26 01:24:35;;;;;;;1.98;1.30;;;;;;;22.37;58.74;99806.66;10285596;28;20958;-61
2022/06/26 01:29:37;;;;;;;3.03;1.27;;;;;;;22.37;58.42;99804.78;10284995;28;20610;-61
2022/06/26 01:34:39;;;;;;;3.70;1.50;;;;;;;22.36;58.39;99803.09;10284977;28;20085;-61
2022/06/26 01:39:40;;;;;;;1.90;1.42;;;;;;;22.34;58.55;99788.94;10286685;28;20185;-61
2022/06/26 01:44:41;;;;;;;2.50;1.52;;;;;;;22.36;58.71;99799.56;10284050;28;20133;-61
2022/06/26 01:49:43;;;;;;;3.20;1.70;;;;;;;22.38;58.30;99811.00;10294152;28;20168;-61
2022/06/26 01:54:44;;;;;;;2.10;1.42;;;;;;;22.35;57.99;99812.28;10292102;28;20078;-62
2022/06/26 01:59:45;;;;;;;1.80;1.48;;;;;;;22.34;58.74;99820.59;10294818;28;20077;-62
2022/06/26 02:04:47;;;;;;;2.20;1.58;;;;;;;22.31;58.53;99821.88;10291907;28;20049;-61
2022/06/26 02:15:08;;;;;;;6.13;3.13;;;;;;;22.18;61.80;99821.88;10293842;28;20811;-62
2022/06/26 02:20:10;;;;;;;4.80;3.90;;;;;;;22.11;63.28;99824.56;10293310;28;20065;-62
2022/06/26 02:25:12;;;;;;;4.72;3.90;;;;;;;22.02;64.04;99817.69;10293468;28;20081;-61
2022/06/26 02:30:14;;;;;;;4.63;3.50;;;;;;;21.95;65.18;99823.13;10294748;28;21076;-60
2022/06/26 02:35:16;;;;;;;4.10;3.75;;;;;;;21.89;65.61;99823.97;10295781;28;20512;-62
2022/06/26 02:40:20;;;;;;;4.18;3.78;;;;;;;21.80;65.60;99858.56;10285861;28;20707;-61
2022/06/26 02:45:22;;;;;;;4.95;2.30;;;;;;;21.69;64.53;99868.13;10294430;28;20146;-61
2022/06/26 02:50:23;;;;;;;1.27;0.70;;;;;;;21.54;63.15;99883.69;10291274;28;20305;-62
2022/06/26 02:55:25;;;;;;;4.72;0.63;;;;;;;21.39;63.12;99886.53;10290193;28;20656;-61
2022/06/26 03:00:26;;;;;;;0.93;0.70;;;;;;;21.35;63.90;99891.53;10288368;28;20862;-61
2022/06/26 03:05:30;;;;;;;1.50;0.60;;;;;;;21.22;64.00;99883.38;10287801;28;20584;-61
2022/06/26 03:10:31;;;;;;;2.88;0.50;;;;;;;21.18;64.86;99880.25;10289736;28;20615;-61
2022/06/26 03:15:33;;;;;;;1.75;0.70;;;;;;;21.25;64.38;99888.38;10290306;28;20074;-62
2022/06/26 03:20:35;;;;;;;1.90;0.68;;;;;;;21.30;64.26;99877.78;10284358;28;20050;-61
2022/06/26 03:25:36;;;;;;;1.38;0.43;;;;;;;21.31;64.95;99865.91;10287928;28;20456;-61
2022/06/26 03:30:37;;;;;;;0.45;0.30;;;;;;;21.34;63.44;99859.25;10288811;28;20136;-61
2022/06/26 03:35:39;;;;;;;1.40;0.65;;;;;;;21.35;64.61;99842.00;10283692;28;20169;-61
2022/06/26 03:40:40;;;;;;;0.70;0.50;;;;;;;21.37;64.43;99853.44;10287943;28;20573;-61
2022/06/26 03:45:42;;;;;;;1.23;0.50;;;;;;;21.38;64.30;99847.00;10291206;28;20140;-63
2022/06/26 03:50:43;;;;;;;1.05;0.73;;;;;;;21.38;63.75;99844.28;10287741;28;20056;-61
2022/06/26 03:55:45;;;;;;;2.35;1.58;;;;;;;21.32;64.33;99854.06;10287355;28;20086;-60
2022/06/26 04:00:46;;;;;;;1.05;0.55;;;;;;;21.35;65.19;99860.94;10284791;28;20144;-63
2022/06/26 04:05:48;;;;;;;1.50;0.60;;;;;;;21.38;65.29;99860.53;10288622;28;20076;-62
2022/06/26 04:10:50;;;;;;;1.55;0.50;;;;;;;21.44;64.92;99861.56;10286715;28;20187;-61
2022/06/26 04:15:51;;;;;;;0.82;0.60;;;;;;;21.44;64.39;99872.38;10455066;23;20122;-65
2022/06/26 04:20:53;;;;;;;0.88;0.50;;;;;;;21.43;63.93;99874.28;10446077;28;20666;-63
2022/06/26 04:25:54;;;;;;;1.48;0.30;;;;;;;21.44;63.70;99881.38;10434554;28;20123;-65
2022/06/26 04:30:56;;;;;;;2.35;0.88;;;;;;;21.42;64.39;99893.44;10428712;28;20132;-64
2022/06/26 04:35:57;;;;;;;0.98;0.70;;;;;;;21.38;65.10;99887.59;10434278;28;20246;-67
2022/06/26 04:41:31;;;;;;;1.90;0.60;;;;;;;21.41;65.11;99898.03;10433005;28;20561;-65
2022/06/26 04:46:21;;;;;;;0.70;0.40;;;;;;;21.38;65.05;99909.25;10435177;28;20129;-63
2022/06/26 04:51:22;;;;;;;1.00;0.65;;;;;;;21.29;66.50;99905.88;10436349;28;20048;-64
2022/06/26 04:56:24;;;;;;;0.88;0.40;;;;;;;21.29;65.91;99913.19;10440174;28;20161;-64
2022/06/26 05:01:27;;;;;;;1.40;0.55;;;;;;;21.31;66.46;99903.81;10439827;28;20186;-65
2022/06/26 05:06:28;;;;;;;1.17;0.73;;;;;;;21.27;66.24;99920.66;10444012;28;20266;-65
2022/06/26 05:11:30;;;;;;;1.02;0.68;;;;;;;21.19;67.00;99914.38;10440189;28;20135;-65
2022/06/26 05:16:31;;;;;;;0.70;0.50;;;;;;;21.31;66.43;99909.22;10443585;28;20084;-63
2022/06/26 05:21:33;;;;;;;1.98;0.60;;;;;;;21.32;67.14;99905.47;10443010;28;20301;-65
2022/06/26 05:26:35;;;;;;;2.47;0.60;;;;;;;21.42;67.50;99901.56;10447483;28;20171;-63
2022/06/26 05:31:36;;;;;;;1.17;0.50;;;;;;;21.56;65.81;99910.56;10445454;28;20084;-63
2022/06/26 05:36:37;;;;;;;1.35;0.50;;;;;;;21.60;64.69;99917.25;10443760;28;20059;-65
2022/06/26 05:41:39;;;;;;;1.13;0.40;;;;;;;21.75;65.54;99922.50;10446909;28;20549;-65
2022/06/26 05:46:41;;;;;;;1.63;0.98;;;;;;;21.79;65.43;99943.56;10448343;28;20143;-63
2022/06/26 05:51:43;;;;;;;2.58;0.98;;;;;;;21.78;65.53;99924.81;10444322;28;20930;-65
2022/06/26 05:56:44;;;;;;;1.45;0.63;;;;;;;21.91;65.21;99929.44;10444943;28;20076;-63
2022/06/26 06:01:46;;;;;;;1.55;0.70;;;;;;;22.17;63.85;99924.03;10444415;28;20130;-67
2022/06/26 06:06:47;;;;;;;2.60;0.55;;;;;;;22.44;63.27;99943.03;10433316;28;20226;-67
2022/06/26 06:11:49;;;;;;;2.22;0.52;;;;;;;22.60;63.06;99942.59;10394774;28;20569;-66
2022/06/26 06:16:50;;;;;;;1.20;0.60;;;;;;;22.70;63.09;99947.63;10397804;28;20839;-65
2022/06/26 06:21:52;;;;;;;0.68;0.40;;;;;;;;;;10401483;28;20059;-66
2022/06/26 06:26:53;;;;;;;0.50;0.30;;;;;;;22.55;61.06;99988.53;10398538;28;20073;-65
2022/06/26 06:31:55;;;;;;;0.82;0.30;;;;;;;22.59;61.00;99989.78;10398553;28;20052;-66
2022/06/26 06:36:56;;;;;;;2.20;0.52;;;;;;;22.60;61.34;99994.16;10402531;28;20465;-66
2022/06/26 06:41:58;;;;;;;2.15;0.60;;;;;;;22.63;60.75;99992.06;10404481;28;20564;-63
2022/06/26 06:46:59;;;;;;;0.85;0.40;;;;;;;22.66;60.66;99986.22;10404684;28;20056;-63
2022/06/26 06:52:01;;;;;;;0.82;0.43;;;;;;;22.68;60.20;99994.97;10407980;28;20056;-63
2022/06/26 06:57:03;;;;;;;1.30;0.60;;;;;;;22.81;60.43;100005.00;10418383;28;20072;-64
2022/06/26 07:02:04;;;;;;;0.75;0.35;;;;;;;22.83;59.87;100003.72;10432037;28;20139;-64
2022/06/26 07:07:06;;;;;;;1.52;0.50;;;;;;;23.03;60.00;99992.00;10412053;28;20578;-64
2022/06/26 07:12:07;;;;;;;1.13;0.50;;;;;;;23.24;59.23;99999.09;10401398;28;20045;-62
2022/06/26 07:17:09;;;;;;;1.42;0.80;;;;;;;23.18;59.42;100016.25;10397181;28;20381;-63
2022/06/26 07:22:15;;;;;;;1.20;0.73;;;;;;;23.21;59.55;100027.53;10398264;28;20191;-63
2022/06/26 07:27:17;;;;;;;0.93;0.65;;;;;;;23.28;58.79;100032.94;10403953;28;20091;-63
2022/06/26 07:32:18;;;;;;;1.33;0.60;;;;;;;23.31;58.16;100040.66;10405216;28;20207;-66
2022/06/26 07:37:20;;;;;;;1.00;0.80;;;;;;;23.46;58.73;100040.41;10410406;28;20141;-66
2022/06/26 07:42:22;;;;;;;1.77;0.60;;;;;;;23.51;58.28;100048.75;10400845;28;20059;-64
2022/06/26 07:47:23;;;;;;;2.22;0.65;;;;;;;23.50;57.79;100046.25;10404850;28;20478;-65
2022/06/26 07:52:25;;;;;;;0.85;0.30;;;;;;;23.62;56.96;100039.94;10410235;28;20190;-67
2022/06/26 07:57:26;;;;;;;1.13;0.40;;;;;;;23.75;56.34;100032.78;10417191;28;20139;-68
2022/06/26 08:02:28;;;;;;;1.15;0.45;;;;;;;23.95;55.45;100038.97;10407341;28;20125;-65
2022/06/26 08:07:30;;;;;;;1.42;0.70;;;;;;;23.96;55.58;100037.94;10398222;28;21457;-66
2022/06/26 08:12:31;;;;;;;1.40;0.52;;;;;;;24.26;55.67;100045.53;10397621;28;20436;-69
2022/06/26 08:17:33;;;;;;;1.55;0.50;;;;;;;24.28;55.34;100027.09;10398905;28;20071;-68
2022/06/26 08:22:35;;;;;;;1.75;0.40;;;;;;;24.32;54.89;100022.88;10406154;28;20518;-67
2022/06/26 08:27:36;;;;;;;3.22;0.55;;;;;;;24.47;54.36;100029.88;10399568;28;20040;-66
2022/06/26 08:32:39;;;;;;;0.67;0.30;;;;;;;24.58;53.55;100031.06;10395685;28;20063;-67
2022/06/26 08:37:40;;;;;;;0.77;0.52;;;;;;;24.71;53.47;100036.41;10401207;28;20390;-68
2022/06/26 08:42:42;;;;;;;1.17;0.30;;;;;;;24.87;52.23;100045.91;10408741;28;20166;-67
2022/06/26 08:47:49;;;;;;;0.70;0.27;;;;;;;24.99;52.33;100043.31;10396878;28;20133;-68
2022/06/26 08:52:52;;;;;;;1.73;0.30;;;;;;;25.32;49.42;100051.16;10396796;28;20052;-69
2022/06/26 08:57:53;;;;;;;0.52;0.30;;;;;;;25.43;49.62;100048.75;10392285;28;20288;-69
2022/06/26 09:02:55;;;;;;;1.17;0.30;;;;;;;25.50;48.70;100055.78;10399467;28;20098;-69
2022/06/26 09:07:58;;;;;;;1.30;0.30;;;;;;;25.47;47.47;100049.97;10396061;28;20631;-66
2022/06/26 09:13:00;;;;;;;0.80;0.25;;;;;;;25.56;47.84;100048.63;10397680;28;20076;-66
2022/06/26 09:18:04;;;;;;;0.32;0.15;;;;;;;25.92;47.04;100052.38;10407864;28;20397;-67
2022/06/26 09:23:06;;;;;;;0.68;0.30;;;;;;;26.13;47.24;100052.97;10400823;28;20096;-67
2022/06/26 09:28:34;;;;;;;1.47;0.60;;;;;;;26.59;45.41;100044.09;10410330;28;20130;-66
2022/06/26 09:33:36;;;;;;;1.08;0.30;;;;;;;26.78;45.05;100031.22;10411630;28;20064;-68
2022/06/26 09:38:37;;;;;;;0.70;0.27;;;;;;;27.08;44.95;100013.88;10403494;28;20101;-66
2022/06/26 09:43:42;;;;;;;0.75;0.10;;;;;;;27.32;44.28;100008.38;10408742;28;20057;-67
2022/06/26 09:48:43;;;;;;;0.47;0.20;;;;;;;27.41;41.72;100009.69;10406423;28;20045;-66
2022/06/26 09:53:45;;;;;;;1.02;0.10;;;;;;;27.80;41.42;100015.44;10402476;28;20321;-67
2022/06/26 09:58:47;;;;;;;1.13;0.30;;;;;;;27.75;42.16;100022.69;10408225;28;20083;-67
2022/06/26 10:09:28;;;;;;;0.52;0.15;;;;;;;28.41;38.85;100006.69;10354546;28;20052;-66
2022/06/26 10:14:41;;;;;;;0.98;0.30;;;;;;;28.18;38.12;100013.97;10396632;28;20070;-67
2022/06/26 10:19:46;;;;;;;0.40;0.20;;;;;;;28.14;39.50;100021.00;10404957;28;20186;-67
2022/06/26 10:25:00;;;;;;;0.30;0.30;;;;;;;28.49;39.09;100019.97;10399588;28;20418;-68
2022/06/26 10:30:11;;;;;;;1.35;0.50;;;;;;;28.43;38.84;100020.97;10401144;28;20059;-68
2022/06/26 10:35:13;;;;;;;0.25;0.20;;;;;;;28.31;38.72;100031.16;10407891;28;20837;-68
2022/06/26 10:42:52;;;;;;;;;;;;;;;28.39;39.07;100030.75;10406477;28;20068;-67
2022/06/26 10:45:39;;;;;;;0.52;0.22;;;;;;;29.26;37.93;100018.47;10406903;28;20008;-69
2022/06/26 10:50:42;;;;;;;0.43;0.20;;;;;;;29.63;36.41;100025.22;10407862;28;20049;-67
2022/06/26 10:55:52;;;;;;;0.52;0.30;;;;;;;29.17;36.28;100028.19;10409288;28;20052;-67
2022/06/26 11:00:56;;;;;;;1.35;0.30;;;;;;;28.47;37.78;100013.91;10390279;28;20068;-68
2022/06/26 11:06:15;;;;;;;1.50;0.32;;;;;;;28.72;37.92;100020.94;10407166;28;20102;-68
2022/06/26 11:11:35;;;;;;;0.20;0.20;;;;;;;29.03;38.66;100008.50;10413338;28;20076;-68
2022/06/26 11:16:41;;;;;;;1.50;0.40;;;;;;;29.55;36.70;100004.56;10407934;28;20789;-67
2022/06/26 11:21:43;;;;;;;0.77;0.20;;;;;;;30.24;37.05;100000.41;10375175;28;20059;-67
2022/06/26 11:26:44;;;;;;;0.30;0.30;;;;;;;30.65;36.56;99995.28;10394481;28;20062;-67
2022/06/26 11:31:48;;;;;;;0.80;0.40;;;;;;;30.29;35.71;99997.69;10404700;28;20080;-68
2022/06/26 11:36:51;;;;;;;0.43;0.25;;;;;;;30.29;35.82;99999.63;10405698;28;20055;-67
2022/06/26 11:41:59;;;;;;;1.17;0.30;;;;;;;30.68;35.19;99992.00;10403186;28;20679;-68
2022/06/26 11:47:00;;;;;;;0.47;0.25;;;;;;;31.02;35.24;99994.47;10407255;28;20337;-67
2022/06/26 11:52:02;;;;;;;0.95;0.32;;;;;;;30.79;33.81;99997.56;10413912;28;20110;-66
2022/06/26 11:57:08;;;;;;;;;;;;;;;31.22;32.92;99992.91;10411211;28;20800;-66
2022/06/26 12:02:23;;;;;;;0.20;0.17;;;;;;;31.27;32.99;99984.72;10408095;28;19928;-66
2022/06/26 12:07:26;;;;;;;0.75;0.20;;;;;;;31.36;34.36;99987.75;10404829;28;21421;-69
2022/06/26 12:12:28;;;;;;;0.77;0.20;;;;;;;31.81;32.91;99982.72;10402870;28;20072;-67
2022/06/26 12:17:30;;;;;;;1.38;0.40;;;;;;;32.04;32.53;99973.94;10399238;28;20047;-68
2022/06/26 12:22:33;;;;;;;0.40;0.20;;;;;;;31.79;32.06;99968.41;10406128;28;20496;-68
2022/06/26 12:27:42;;;;;;;0.30;0.28;;;;;;;30.79;33.05;99959.97;10406981;28;20252;-67
2022/06/26 12:32:44;;;;;;;0.47;0.40;;;;;;;30.53;34.61;99958.94;10403068;28;20140;-69
2022/06/26 12:37:46;;;;;;;0.38;0.20;;;;;;;30.41;34.73;99966.53;10390077;28;20048;-68
2022/06/26 12:42:48;;;;;;;0.50;0.30;;;;;;;30.24;34.57;99975.69;10401490;28;20441;-68
2022/06/26 12:47:50;;;;;;;0.40;0.10;;;;;;;30.00;35.36;99974.38;10397070;28;20143;-68
2022/06/26 12:52:52;;;;;;;0.63;0.30;;;;;;;29.84;35.55;99968.72;10400424;28;20044;-68
2022/06/26 12:57:53;;;;;;;0.70;0.30;;;;;;;29.81;35.88;99969.25;10408604;28;20620;-68
2022/06/26 13:02:55;;;;;;;1.65;0.28;;;;;;;29.38;36.45;99959.94;10400940;28;20051;-68
2022/06/26 13:07:56;;;;;;;0.40;0.10;;;;;;;29.53;35.65;99962.88;10399612;28;20048;-68
2022/06/26 13:12:58;;;;;;;0.60;0.23;;;;;;;29.44;35.77;99958.94;10405027;28;20428;-68
2022/06/26 13:17:59;;;;;;;0.80;0.30;;;;;;;29.67;34.79;99962.50;10396890;28;20134;-68
2022/06/26 13:23:01;;;;;;;0.73;0.30;;;;;;;29.48;35.68;99965.56;10380364;28;20144;-68
2022/06/26 13:28:03;;;;;;;0.63;0.40;;;;;;;29.81;35.41;99963.75;10400798;28;20139;-68
2022/06/26 13:33:04;;;;;;;1.65;0.40;;;;;;;29.75;34.86;99959.28;10400679;28;20152;-68
2022/06/26 13:38:06;;;;;;;0.70;0.40;;;;;;;29.81;35.88;99955.53;10398479;28;20052;-69
2022/06/26 13:43:07;;;;;;;0.53;0.37;;;;;;;30.06;35.75;99952.22;10404702;28;20067;-68
2022/06/26 13:48:09;;;;;;;2.38;0.30;;;;;;;30.04;35.58;99950.81;10406111;28;20187;-68
2022/06/26 13:53:10;;;;;;;0.50;0.30;;;;;;;29.95;35.15;99951.28;10414087;28;20131;-67
2022/06/26 13:58:12;;;;;;;0.70;0.27;;;;;;;30.07;35.47;99944.81;10404807;28;20294;-67
2022/06/26 14:03:14;;;;;;;2.37;0.60;;;;;;;30.20;35.40;99949.84;10415956;28;20279;-67
2022/06/26 14:08:15;;;;;;;2.10;0.30;;;;;;;30.01;36.69;99951.34;10410533;28;20144;-67
2022/06/26 14:13:17;;;;;;;0.83;0.40;;;;;;;29.59;38.81;99948.16;10410766;28;20497;-67
2022/06/26 14:18:18;;;;;;;0.83;0.37;;;;;;;29.55;39.06;99938.78;10415322;28;20148;-68
2022/06/26 14:28:40;;;;;;;1.05;0.28;;;;;;;29.54;39.44;99922.59;10409873;28;21119;-68
2022/06/26 14:33:42;;;;;;;1.10;0.40;;;;;;;29.68;39.24;99931.22;10410611;28;20253;-67
2022/06/26 14:38:43;;;;;;;1.85;0.30;;;;;;;29.50;39.88;99936.00;10401390;28;20166;-68
2022/06/26 14:43:55;;;;;;;1.83;0.40;;;;;;;29.30;39.96;99935.75;10407613;28;20052;-71
2022/06/26 14:48:56;;;;;;;1.10;0.40;;;;;;;28.90;40.59;99922.06;10407582;28;20658;-69
2022/06/26 14:53:58;;;;;;;1.30;0.63;;;;;;;29.10;41.13;99923.41;10405530;28;20054;-68
2022/06/26 14:58:59;;;;;;;1.73;0.60;;;;;;;29.01;40.72;99916.72;10405665;28;20418;-68
2022/06/26 15:04:01;;;;;;;1.00;0.53;;;;;;;29.10;40.83;99910.53;10407384;28;20377;-68
2022/06/26 15:09:02;;;;;;;0.77;0.40;;;;;;;29.07;41.00;99894.59;10405715;28;20600;-67
2022/06/26 15:14:04;;;;;;;0.77;0.30;;;;;;;28.60;41.63;99891.50;10404334;28;20040;-68
2022/06/26 15:19:05;;;;;;;1.50;0.90;;;;;;;28.39;42.48;99899.38;10408043;28;20040;-68
2022/06/26 15:24:07;;;;;;;1.92;0.40;;;;;;;28.42;42.49;99882.47;10407623;28;20049;-68
2022/06/26 15:29:08;;;;;;;2.10;0.60;;;;;;;28.18;42.94;99882.63;10411593;28;20209;-68
2022/06/26 15:34:10;;;;;;;0.50;0.38;;;;;;;28.23;42.75;99878.34;10411650;28;20159;-68
2022/06/26 15:39:12;;;;;;;0.73;0.50;;;;;;;28.32;42.69;99857.69;10407548;28;20052;-69
2022/06/26 15:44:14;;;;;;;1.63;0.40;;;;;;;28.45;42.46;99862.81;10417190;28;20044;-68
2022/06/26 15:49:15;;;;;;;1.35;0.52;;;;;;;28.21;42.87;99864.91;10407532;28;20051;-69
2022/06/26 15:54:17;;;;;;;1.30;0.43;;;;;;;28.19;42.67;99862.41;10408380;28;20153;-68
2022/06/26 15:59:18;;;;;;;0.40;0.32;;;;;;;28.03;42.67;99858.59;10405045;28;20787;-68
2022/06/26 16:04:20;;;;;;;0.45;0.40;;;;;;;27.90;43.37;99866.28;10406201;28;20055;-67
2022/06/26 16:09:21;;;;;;;1.50;0.57;;;;;;;27.78;43.46;99860.88;10401884;28;20839;-69
2022/06/26 16:14:23;;;;;;;1.30;0.30;;;;;;;27.66;43.69;99859.03;10372412;22;20073;-71
2022/06/26 16:19:24;;;;;;;0.85;0.40;;;;;;;27.55;44.16;99850.88;10340089;28;20559;-72
2022/06/26 16:29:45;;;;;;;0.77;0.50;;;;;;;27.33;45.17;99859.78;10346093;28;20063;-71
2022/06/26 16:34:47;;;;;;;1.15;0.85;;;;;;;27.22;45.29;99871.53;10337459;28;20061;-72
2022/06/26 16:39:48;;;;;;;2.88;0.50;;;;;;;27.23;45.66;99870.47;10338798;28;20483;-74
2022/06/26 16:44:50;;;;;;;2.60;0.65;;;;;;;27.28;45.90;99857.75;10338571;28;20580;-73
2022/06/26 16:49:51;;;;;;;1.67;0.60;;;;;;;27.19;46.18;99861.97;10328450;28;20137;-73
2022/06/26 16:54:53;;;;;;;1.98;0.98;;;;;;;27.24;46.92;99861.22;10338308;28;20056;-71
2022/06/26 17:00:00;;;;;;;1.20;1.10;;;;;;;27.22;47.39;99856.00;10347252;28;20053;-69
2022/06/26 17:05:03;;;;;;;3.47;1.20;;;;;;;27.23;47.70;99854.09;10351948;28;20051;-71
2022/06/26 17:10:05;;;;;;;1.63;1.15;;;;;;;27.14;48.22;99840.00;10347632;28;20060;-70
2022/06/26 17:15:07;;;;;;;1.63;1.10;;;;;;;26.97;48.38;99839.94;10337204;28;20075;-70
2022/06/26 17:20:09;;;;;;;1.50;1.10;;;;;;;26.87;48.67;99828.78;10335489;28;20057;-70
2022/06/26 17:25:10;;;;;;;3.70;1.50;;;;;;;26.74;49.19;99832.63;10351200;28;20334;-69
2022/06/26 17:30:13;;;;;;;1.67;1.48;;;;;;;26.61;50.14;99833.69;10343384;28;20049;-71
2022/06/26 17:35:14;;;;;;;1.88;1.77;;;;;;;26.51;50.41;99836.19;10343074;28;20101;-74
2022/06/26 17:40:16;;;;;;;2.17;1.58;;;;;;;26.43;50.70;99824.56;10339984;28;20041;-71
2022/06/26 17:45:17;;;;;;;3.78;2.15;;;;;;;26.28;51.59;99816.84;10345873;28;20169;-71
2022/06/26 17:50:22;;;;;;;3.97;1.80;;;;;;;26.19;51.91;99814.75;10346959;28;20060;-73
2022/06/26 17:55:26;;;;;;;2.45;1.60;;;;;;;25.97;53.20;99809.81;10345457;28;20186;-72
2022/06/26 18:00:27;;;;;;;3.50;1.98;;;;;;;25.89;53.42;99807.47;10386157;28;20060;-69
2022/06/26 18:05:30;;;;;;;1.70;1.60;;;;;;;25.82;52.96;99809.47;10376073;28;20057;-72
2022/06/26 18:10:34;;;;;;;2.85;1.50;;;;;;;25.75;53.82;99810.41;10352073;28;20098;-72
2022/06/26 18:15:36;;;;;;;3.03;1.92;;;;;;;25.78;53.84;99798.22;10336310;28;20061;-71
2022/06/26 18:20:40;;;;;;;2.43;2.23;;;;;;;25.67;53.73;99793.56;10342164;28;20124;-71
2022/06/26 18:25:45;;;;;;;3.13;2.20;;;;;;;25.59;53.78;99798.28;10336279;28;20384;-72
2022/06/26 18:30:47;;;;;;;2.30;2.20;;;;;;;25.47;54.21;99794.69;10341937;28;20619;-70
2022/06/26 18:35:49;;;;;;;3.30;2.08;;;;;;;25.38;54.28;99802.38;10346796;28;20740;-71
2022/06/26 18:40:50;;;;;;;2.70;1.90;;;;;;;25.26;54.50;99798.75;10364372;28;20058;-71
2022/06/26 18:45:54;;;;;;;2.70;1.90;;;;;;;25.19;54.75;99795.28;10356123;28;20081;-70
2022/06/26 18:50:55;;;;;;;2.05;1.58;;;;;;;25.16;55.16;99798.47;10362730;28;20061;-72
2022/06/26 18:55:57;;;;;;;2.35;1.95;;;;;;;25.08;55.23;99790.63;10373095;28;20047;-73
2022/06/26 19:00:58;;;;;;;3.55;2.10;;;;;;;24.96;55.86;99788.69;10372275;28;20077;-71
2022/06/26 19:06:05;;;;;;;2.50;2.30;;;;;;;24.86;55.55;99799.28;10385659;28;20053;-72
2022/06/26 19:16:47;;;;;;;2.45;2.05;;;;;;;24.69;56.10;99793.63;10337570;28;20049;-70
2022/06/26 19:21:48;;;;;;;2.20;2.00;;;;;;;24.66;56.12;99789.47;10326552;28;20285;-70
2022/06/26 19:26:50;;;;;;;3.08;2.20;;;;;;;24.59;56.23;99798.75;10342228;28;20094;-72
2022/06/26 19:31:53;;;;;;;2.60;2.40;;;;;;;24.61;56.29;99791.22;10341266;28;20768;-72
2022/06/26 19:36:55;;;;;;;2.95;2.30;;;;;;;24.54;56.21;99791.25;10336628;28;20186;-71
2022/06/26 19:47:20;;;;;;;2.00;1.90;;;;;;;24.28;57.32;99787.78;10365770;28;20052;-72
2022/06/26 19:52:21;;;;;;;4.07;2.33;;;;;;;24.24;56.49;99775.66;10341017;28;20064;-71
2022/06/26 19:57:23;;;;;;;2.97;2.03;;;;;;;24.22;56.75;99783.22;10311812;28;20072;-72
2022/06/26 20:02:25;;;;;;;1.95;1.73;;;;;;;24.16;57.48;99786.84;10325784;28;20045;-72
2022/06/26 20:07:26;;;;;;;1.98;1.88;;;;;;;23.86;58.08;99770.41;10320840;28;21616;-72
2022/06/26 20:12:27;;;;;;;2.30;2.10;;;;;;;23.90;58.74;99750.72;10316403;28;20617;-73
2022/06/26 20:17:29;;;;;;;2.03;1.90;;;;;;;23.87;58.51;99740.28;10326102;28;20050;-73
2022/06/26 20:22:30;;;;;;;2.95;2.67;;;;;;;23.62;59.38;99726.69;10322551;28;20079;-71
2022/06/26 20:27:32;;;;;;;2.50;2.30;;;;;;;23.67;59.73;99731.47;10323202;28;20501;-71
2022/06/26 20:32:33;;;;;;;2.92;2.38;;;;;;;23.64;59.71;99725.44;10317479;28;20060;-72
2022/06/26 20:37:35;;;;;;;2.53;2.33;;;;;;;23.59;59.89;99735.28;10329014;28;20163;-72
2022/06/26 20:42:37;;;;;;;2.63;2.20;;;;;;;23.59;59.30;99736.09;10320052;28;20053;-72
2022/06/26 20:47:39;;;;;;;2.60;2.40;;;;;;;23.56;60.36;99730.31;10326545;28;20057;-72
2022/06/26 20:52:42;;;;;;;2.67;2.47;;;;;;;23.46;60.48;99714.47;10311636;28;21443;-71
2022/06/26 20:57:43;;;;;;;2.58;2.38;;;;;;;23.21;60.86;99717.16;10319033;28;20055;-72
2022/06/26 21:02:46;;;;;;;3.15;2.85;;;;;;;23.22;61.19;99725.09;10326387;28;20053;-73
2022/06/26 21:07:47;;;;;;;3.30;3.00;;;;;;;23.24;61.15;99708.59;10327440;28;20199;-73
2022/06/26 21:12:49;;;;;;;3.58;3.15;;;;;;;23.34;60.75;99710.81;10325466;28;20064;-72
2022/06/26 21:17:51;;;;;;;3.65;2.60;;;;;;;23.41;60.65;99722.47;10320837;28;20678;-71
2022/06/26 21:22:53;;;;;;;2.95;2.65;;;;;;;23.41;61.06;99733.34;10321173;28;20605;-71
2022/06/26 21:27:54;;;;;;;3.38;3.13;;;;;;;23.37;61.41;99732.09;10319818;28;20057;-72
2022/06/26 21:32:56;;;;;;;2.95;2.67;;;;;;;23.37;60.99;99727.50;10292678;28;20053;-71
2022/06/26 21:37:58;;;;;;;2.67;2.47;;;;;;;23.34;61.19;99724.41;10324708;28;20140;-72
2022/06/26 21:42:59;;;;;;;4.07;3.10;;;;;;;23.39;61.15;99724.56;10324187;28;20057;-73
2022/06/26 21:48:01;;;;;;;3.20;2.90;;;;;;;23.33;60.93;99715.44;10326620;28;20042;-73
2022/06/26 21:53:03;;;;;;;2.97;2.78;;;;;;;23.33;60.99;99718.16;10328860;28;20058;-72
2022/06/26 21:58:04;;;;;;;2.90;2.70;;;;;;;23.27;61.24;99722.56;10331834;28;20114;-70
2022/06/26 22:03:08;;;;;;;3.08;2.63;;;;;;;23.19;61.63;99720.09;10326444;28;20135;-72
2022/06/26 22:08:10;;;;;;;3.15;2.95;;;;;;;23.24;61.58;99723.00;10333139;28;20056;-72
2022/06/26 22:13:11;;;;;;;2.85;2.45;;;;;;;23.20;61.73;99727.22;10334474;28;20064;-71
2022/06/26 22:18:13;;;;;;;3.03;2.83;;;;;;;23.22;62.13;99737.84;10329304;28;20054;-71
2022/06/26 22:23:14;;;;;;;2.90;2.70;;;;;;;23.21;62.21;99750.59;10333836;28;20705;-71
2022/06/26 22:28:16;;;;;;;3.17;2.97;;;;;;;23.16;62.83;99753.13;10337356;28;20563;-71
2022/06/26 22:33:17;;;;;;;3.17;2.90;;;;;;;22.90;64.69;99760.34;10339467;28;20293;-70
2022/06/26 22:38:19;;;;;;;8.25;2.92;;;;;;;22.87;64.33;99768.91;10353171;28;20062;-69
2022/06/26 22:43:20;;;;;;;3.80;2.90;;;;;;;22.72;66.24;99782.75;10378063;28;20049;-69
2022/06/26 22:48:21;;;;;;;3.50;3.20;;;;;;;22.69;66.56;99799.47;10407805;28;20058;-68
2022/06/26 22:53:23;;;;;;;4.80;4.07;;;;;;;22.67;67.07;99815.13;10389048;28;20045;-69
2022/06/26 22:58:24;;;;;;;5.07;3.70;;;;;;;22.66;68.52;99839.75;10385740;28;20057;-70
2022/06/26 23:03:25;;;;;;;4.07;3.70;;;;;;;22.45;70.18;99840.84;10387789;28;20133;-70
2022/06/26 23:08:27;;;;;;;4.10;3.70;;;;;;;22.49;70.33;99839.34;10361636;28;20700;-70
2022/06/26 23:13:29;;;;;;;4.55;3.97;;;;;;;22.45;71.23;99887.75;10351795;28;20052;-69
2022/06/26 23:18:30;;;;;;;4.82;4.32;;;;;;;22.55;72.21;99879.22;10351241;28;20411;-70
2022/06/26 23:23:31;;;;;;;4.03;3.70;;;;;;;22.60;72.80;99901.94;10347825;28;20054;-70
2022/06/26 23:28:33;;;;;;;4.10;3.80;;;;;;;22.39;74.08;99935.53;10342688;28;20045;-70
2022/06/26 23:33:36;;;;;;;4.13;3.72;;;;;;;22.38;73.69;99941.16;10350918;28;20041;-70
2022/06/26 23:38:37;;;;;;;3.60;3.30;;;;;;;22.29;74.18;99964.06;10345153;28;20124;-70
2022/06/26 23:43:39;;;;;;;4.20;3.30;;;;;;;22.29;75.45;99958.66;10350287;28;20053;-70
2022/06/26 23:48:40;;;;;;;4.45;2.83;;;;;;;22.22;72.86;99964.91;10352851;28;20053;-71
2022/06/26 23:53:42;;;;;;;4.10;3.28;;;;;;;22.07;74.49;99965.09;10352617;28;20057;-69
2022/06/26 23:58:43;;;;;;;6.25;3.40;;;;;;;21.99;75.61;99954.47;10355912;28;20051;-71
